createdAt,value
2017-12-22T00:01:51.905Z,30.77
2017-12-22T00:04:18.129Z,27.00
2017-12-22T00:06:44.329Z,28.83
2017-12-22T00:09:10.447Z,27.55
2017-12-22T00:11:36.728Z,27.65
2017-12-22T00:14:04.835Z,28.25
2017-12-22T00:16:32.259Z,26.45
2017-12-22T00:18:58.428Z,24.00
2017-12-22T00:21:24.569Z,27.25
2017-12-22T00:23:50.693Z,27.45
2017-12-22T00:26:16.819Z,25.45
2017-12-22T00:28:42.972Z,27.30
2017-12-22T00:31:09.129Z,25.00
2017-12-22T00:33:36.000Z,25.27
2017-12-22T00:36:02.129Z,22.05
2017-12-22T00:38:29.013Z,22.30
2017-12-22T00:40:55.194Z,25.17
2017-12-22T00:43:21.325Z,26.25
2017-12-22T00:45:59.728Z,27.52
2017-12-22T00:48:25.917Z,24.23
2017-12-22T00:50:52.040Z,24.67
2017-12-22T00:53:18.170Z,24.77
2017-12-22T00:55:44.294Z,26.42
2017-12-22T00:58:11.137Z,29.90
2017-12-22T01:00:37.339Z,31.00
2017-12-22T01:03:03.469Z,28.23
2017-12-22T01:05:29.609Z,26.77
2017-12-22T01:07:55.712Z,26.85
2017-12-22T01:10:22.628Z,24.60
2017-12-22T01:12:48.761Z,22.73
2017-12-22T01:15:14.916Z,22.73
2017-12-22T01:17:48.097Z,23.70
2017-12-22T01:20:14.324Z,22.50
2017-12-22T01:22:40.442Z,20.62
2017-12-22T01:25:07.288Z,22.02
2017-12-22T01:27:34.187Z,21.75
2017-12-22T01:30:00.308Z,20.70
2017-12-22T01:32:27.183Z,20.83
2017-12-22T01:34:53.335Z,22.40
2017-12-22T01:37:19.593Z,22.02
2017-12-22T01:39:45.820Z,21.08
2017-12-22T01:42:11.957Z,20.75
2017-12-22T01:44:38.088Z,21.42
2017-12-22T01:47:04.989Z,22.15
2017-12-22T01:49:31.156Z,25.30
2017-12-22T01:51:57.318Z,23.08
2017-12-22T01:54:24.229Z,23.73
2017-12-22T01:56:53.091Z,24.20
2017-12-22T01:59:19.299Z,23.75
2017-12-22T02:01:45.445Z,20.83
2017-12-22T02:04:11.600Z,21.15
2017-12-22T02:06:56.101Z,21.20
2017-12-22T02:09:41.591Z,19.12
2017-12-22T02:12:07.980Z,20.33
2017-12-22T02:14:35.024Z,19.73
2017-12-22T02:17:01.377Z,20.75
2017-12-22T02:19:28.512Z,20.35
2017-12-22T02:21:54.817Z,19.30
2017-12-22T02:24:21.129Z,23.48
2017-12-22T02:26:49.500Z,25.10
2017-12-22T02:29:15.929Z,21.95
2017-12-22T02:31:42.227Z,21.48
2017-12-22T02:34:08.547Z,20.12
2017-12-22T02:36:34.849Z,20.77
2017-12-22T02:39:01.193Z,22.13
2017-12-22T02:41:28.245Z,20.52
2017-12-22T02:43:55.318Z,20.85
2017-12-22T02:46:22.848Z,22.92
2017-12-22T02:48:49.179Z,21.17
2017-12-22T02:51:15.504Z,20.23
2017-12-22T02:53:41.829Z,23.62
2017-12-22T02:56:08.245Z,20.80
2017-12-22T02:58:35.334Z,24.23
2017-12-22T03:01:02.442Z,22.58
2017-12-22T03:03:28.756Z,25.30
2017-12-22T03:05:55.056Z,24.10
2017-12-22T03:08:21.356Z,23.70
2017-12-22T03:10:47.712Z,27.08
2017-12-22T03:13:14.045Z,27.40
2017-12-22T03:15:40.379Z,26.15
2017-12-22T03:18:06.775Z,25.95
2017-12-22T03:20:33.101Z,28.08
2017-12-22T03:22:59.396Z,26.02
2017-12-22T03:25:25.852Z,26.12
2017-12-22T03:27:52.276Z,24.87
2017-12-22T03:30:18.620Z,24.10
2017-12-22T03:32:44.945Z,23.90
2017-12-22T03:35:11.371Z,26.27
2017-12-22T03:37:37.693Z,23.77
2017-12-22T03:40:04.038Z,25.35
2017-12-22T03:42:31.303Z,25.52
2017-12-22T03:44:58.384Z,25.08
2017-12-22T03:47:24.857Z,23.30
2017-12-22T03:49:51.231Z,25.90
2017-12-22T03:52:17.580Z,23.27
2017-12-22T03:54:43.959Z,22.08
2017-12-22T03:57:11.040Z,24.00
2017-12-22T03:59:37.393Z,22.08
2017-12-22T04:02:04.828Z,21.00
2017-12-22T04:04:31.394Z,22.95
2017-12-22T04:06:58.068Z,24.98
2017-12-22T04:09:25.162Z,23.65
2017-12-22T04:11:54.353Z,24.50
2017-12-22T04:14:20.763Z,22.77
2017-12-22T04:16:47.115Z,21.83
2017-12-22T04:19:16.888Z,21.25
2017-12-22T04:21:43.250Z,22.20
2017-12-22T04:24:09.592Z,23.00
2017-12-22T04:26:35.938Z,22.98
2017-12-22T04:29:03.079Z,24.27
2017-12-22T04:31:29.434Z,22.77
2017-12-22T04:33:55.860Z,20.95
2017-12-22T04:36:22.201Z,19.30
2017-12-22T04:38:48.659Z,22.13
2017-12-22T04:41:14.988Z,20.02
2017-12-22T04:43:42.674Z,19.30
2017-12-22T04:46:09.721Z,18.30
2017-12-22T04:48:36.028Z,21.70
2017-12-22T04:51:02.356Z,18.67
2017-12-22T04:53:28.950Z,17.80
2017-12-22T04:55:56.040Z,19.33
2017-12-22T04:58:22.372Z,18.92
2017-12-22T05:00:48.751Z,16.65
2017-12-22T05:03:15.077Z,16.10
2017-12-22T05:05:41.481Z,15.00
2017-12-22T05:08:07.807Z,14.30
2017-12-22T05:10:35.017Z,14.48
2017-12-22T05:13:01.364Z,14.38
2017-12-22T05:15:32.569Z,13.60
2017-12-22T05:17:58.886Z,11.43
2017-12-22T05:20:25.948Z,12.80
2017-12-22T05:22:52.301Z,12.02
2017-12-22T05:25:18.621Z,11.75
2017-12-22T05:27:44.912Z,12.95
2017-12-22T05:30:11.233Z,12.45
2017-12-22T05:32:37.520Z,12.70
2017-12-22T05:35:03.832Z,10.70
2017-12-22T05:37:30.120Z,13.32
2017-12-22T05:39:56.454Z,11.18
2017-12-22T05:42:22.813Z,11.32
2017-12-22T05:44:49.879Z,11.60
2017-12-22T05:47:17.004Z,12.50
2017-12-22T05:49:44.297Z,11.43
2017-12-22T05:52:11.376Z,12.75
2017-12-22T05:54:38.092Z,12.35
2017-12-22T05:57:04.392Z,11.75
2017-12-22T05:59:30.692Z,12.20
2017-12-22T06:01:57.020Z,11.50
2017-12-22T06:04:23.328Z,11.02
2017-12-22T06:06:49.618Z,11.40
2017-12-22T06:09:17.690Z,10.63
2017-12-22T06:11:44.760Z,11.20
2017-12-22T06:14:11.099Z,10.48
2017-12-22T06:16:37.501Z,10.32
2017-12-22T06:19:03.992Z,11.05
2017-12-22T06:21:30.347Z,10.38
2017-12-22T06:23:57.436Z,10.35
2017-12-22T06:26:24.554Z,10.10
2017-12-22T06:28:50.901Z,11.20
2017-12-22T06:31:17.232Z,9.70
2017-12-22T06:33:43.616Z,9.70
2017-12-22T06:36:10.016Z,10.77
2017-12-22T06:38:36.383Z,8.98
2017-12-22T06:41:02.775Z,9.57
2017-12-22T06:43:29.104Z,10.45
2017-12-22T06:45:55.448Z,9.35
2017-12-22T06:48:21.809Z,9.65
2017-12-22T06:50:48.909Z,9.90
2017-12-22T06:53:15.293Z,9.30
2017-12-22T06:55:45.182Z,8.82
2017-12-22T07:00:56.480Z,8.80
2017-12-22T07:03:22.847Z,8.57
2017-12-22T07:05:51.384Z,8.60
2017-12-22T07:08:17.728Z,8.80
2017-12-22T07:10:44.070Z,8.00
2017-12-22T07:13:10.419Z,9.85
2017-12-22T07:15:37.090Z,8.73
2017-12-22T07:18:03.450Z,9.43
2017-12-22T07:20:29.890Z,9.18
2017-12-22T07:22:56.288Z,8.45
2017-12-22T07:25:22.624Z,9.73
2017-12-22T07:27:49.836Z,11.65
2017-12-22T07:30:16.177Z,11.15
2017-12-22T07:32:43.288Z,10.63
2017-12-22T07:35:10.567Z,12.65
2017-12-22T07:37:37.769Z,12.00
2017-12-22T07:40:04.127Z,9.88
2017-12-22T07:42:30.441Z,11.80
2017-12-22T07:44:56.936Z,11.05
2017-12-22T07:47:23.244Z,10.05
2017-12-22T07:49:49.548Z,10.73
2017-12-22T07:52:15.864Z,10.48
2017-12-22T07:54:42.273Z,12.68
2017-12-22T07:57:08.589Z,13.75
2017-12-22T07:59:34.897Z,12.15
2017-12-22T08:02:01.197Z,11.98
2017-12-22T08:04:28.290Z,12.00
2017-12-22T08:06:56.249Z,11.10
2017-12-22T08:09:22.656Z,11.07
2017-12-22T08:11:48.995Z,13.57
2017-12-22T08:14:15.335Z,10.05
2017-12-22T08:16:41.810Z,10.63
2017-12-22T08:19:08.921Z,12.93
2017-12-22T08:21:38.695Z,12.65
2017-12-22T08:24:04.990Z,13.82
2017-12-22T08:26:31.352Z,14.85
2017-12-22T08:28:58.443Z,13.23
2017-12-22T08:31:24.848Z,12.63
2017-12-22T08:33:51.140Z,13.20
2017-12-22T08:36:17.484Z,11.52
2017-12-22T08:38:43.834Z,12.63
2017-12-22T08:41:10.157Z,14.30
2017-12-22T08:43:36.537Z,12.90
2017-12-22T08:46:03.111Z,13.27
2017-12-22T08:48:29.493Z,13.15
2017-12-22T08:50:55.862Z,13.52
2017-12-22T08:53:22.228Z,16.92
2017-12-22T08:55:48.555Z,16.52
2017-12-22T08:58:16.180Z,15.48
2017-12-22T09:00:43.776Z,15.52
2017-12-22T09:03:10.115Z,15.05
2017-12-22T09:05:40.090Z,13.85
2017-12-22T09:08:06.447Z,17.20
2017-12-22T09:10:32.811Z,15.35
2017-12-22T09:12:59.154Z,17.05
2017-12-22T09:15:25.492Z,16.77
2017-12-22T09:17:51.797Z,19.75
2017-12-22T09:20:18.162Z,17.15
2017-12-22T09:22:46.201Z,20.85
2017-12-22T09:25:12.558Z,20.02
2017-12-22T09:27:38.910Z,19.90
2017-12-22T09:30:06.001Z,21.40
2017-12-22T09:32:32.329Z,19.98
2017-12-22T09:34:58.669Z,17.45
2017-12-22T09:39:56.290Z,18.50
2017-12-22T09:42:22.653Z,17.45
2017-12-22T09:44:49.736Z,18.37
2017-12-22T09:47:16.044Z,20.20
2017-12-22T09:49:42.340Z,19.30
2017-12-22T09:52:08.658Z,18.23
2017-12-22T09:54:38.220Z,19.70
2017-12-22T09:57:04.557Z,19.52
2017-12-22T09:59:30.864Z,20.58
2017-12-22T10:01:57.952Z,20.40
2017-12-22T10:04:24.294Z,21.05
2017-12-22T10:06:50.641Z,21.60
2017-12-22T10:09:21.537Z,19.52
2017-12-22T10:11:47.849Z,21.37
2017-12-22T10:14:14.199Z,22.25
2017-12-22T10:16:40.529Z,24.60
2017-12-22T10:19:06.861Z,22.20
2017-12-22T10:21:33.160Z,22.60
2017-12-22T10:24:00.218Z,22.95
2017-12-22T10:26:32.605Z,21.50
2017-12-22T10:28:58.953Z,23.35
2017-12-22T10:31:25.368Z,22.20
2017-12-22T10:33:52.472Z,22.65
2017-12-22T10:36:19.361Z,23.02
2017-12-22T10:38:45.497Z,21.25
2017-12-22T10:41:17.220Z,22.90
2017-12-22T10:43:43.376Z,20.25
2017-12-22T10:46:09.512Z,21.40
2017-12-22T10:48:36.434Z,18.10
2017-12-22T10:51:02.593Z,18.58
2017-12-22T10:53:28.745Z,19.40
2017-12-22T10:55:54.881Z,18.10
2017-12-22T10:58:21.760Z,20.83
2017-12-22T11:00:56.323Z,20.98
2017-12-22T11:03:23.227Z,20.27
2017-12-22T11:05:49.378Z,19.30
2017-12-22T11:08:16.243Z,21.08
2017-12-22T11:10:42.373Z,18.52
2017-12-22T11:13:08.512Z,19.00
2017-12-22T11:15:34.648Z,17.90
2017-12-22T11:20:32.711Z,17.95
2017-12-22T11:22:59.697Z,19.45
2017-12-22T11:25:25.843Z,19.77
2017-12-22T11:27:51.985Z,19.05
2017-12-22T11:30:18.131Z,20.17
2017-12-22T11:32:44.278Z,18.73
2017-12-22T11:37:42.403Z,17.00
2017-12-22T11:40:09.281Z,18.17
2017-12-22T11:42:36.181Z,18.50
2017-12-22T11:45:03.071Z,19.12
2017-12-22T11:47:29.205Z,19.90
2017-12-22T11:49:56.099Z,18.52
2017-12-22T11:52:22.230Z,17.20
2017-12-22T11:54:50.596Z,18.80
2017-12-22T11:57:16.740Z,18.98
2017-12-22T11:59:43.622Z,21.30
2017-12-22T12:02:09.799Z,22.37
2017-12-22T12:04:36.042Z,21.40
2017-12-22T12:07:02.931Z,19.30
2017-12-22T12:09:29.050Z,19.27
2017-12-22T12:12:01.392Z,20.35
2017-12-22T12:14:27.590Z,22.23
2017-12-22T12:16:53.736Z,21.55
2017-12-22T12:19:19.900Z,22.15
2017-12-22T12:21:46.121Z,19.65
2017-12-22T12:24:12.262Z,19.55
2017-12-22T12:26:38.392Z,21.98
2017-12-22T12:29:04.530Z,22.37
2017-12-22T12:31:37.348Z,21.08
2017-12-22T12:34:04.767Z,19.42
2017-12-22T12:36:30.924Z,19.17
2017-12-22T12:38:57.804Z,17.08
2017-12-22T12:41:24.685Z,19.50
2017-12-22T12:43:51.569Z,17.98
2017-12-22T12:46:22.835Z,17.12
2017-12-22T12:48:48.952Z,19.62
2017-12-22T12:51:15.088Z,16.75
2017-12-22T12:53:41.982Z,18.77
2017-12-22T12:56:08.124Z,19.00
2017-12-22T12:58:34.278Z,16.50
2017-12-22T13:01:01.168Z,17.73
2017-12-22T13:03:28.064Z,17.25
2017-12-22T13:05:57.244Z,18.85
2017-12-22T13:08:23.396Z,18.25
2017-12-22T13:10:50.446Z,17.70
2017-12-22T13:13:16.606Z,17.95
2017-12-22T13:15:42.777Z,16.95
2017-12-22T13:18:08.904Z,14.60
2017-12-22T13:20:35.807Z,16.05
2017-12-22T13:23:02.698Z,14.80
2017-12-22T13:25:32.009Z,17.00
2017-12-22T13:27:58.148Z,16.08
2017-12-22T13:30:24.345Z,15.07
2017-12-22T13:32:50.587Z,17.05
2017-12-22T13:35:16.766Z,17.80
2017-12-22T13:37:42.915Z,18.08
2017-12-22T13:40:09.034Z,16.65
2017-12-22T13:42:38.977Z,18.33
2017-12-22T13:45:05.856Z,18.85
2017-12-22T13:47:32.720Z,17.45
2017-12-22T13:49:58.844Z,17.35
2017-12-22T13:52:26.616Z,18.35
2017-12-22T13:54:53.485Z,20.05
2017-12-22T13:57:19.918Z,20.45
2017-12-22T13:59:46.092Z,19.20
2017-12-22T14:02:12.372Z,18.73
2017-12-22T14:04:38.537Z,19.80
2017-12-22T14:07:04.736Z,19.42
2017-12-22T14:09:30.890Z,19.80
2017-12-22T14:12:00.808Z,18.77
2017-12-22T14:14:26.992Z,16.65
2017-12-22T14:16:53.953Z,17.00
2017-12-22T14:19:25.478Z,18.35
2017-12-22T14:21:51.684Z,19.90
2017-12-22T14:24:18.537Z,19.17
2017-12-22T14:26:45.409Z,17.48
2017-12-22T14:29:11.588Z,16.17
2017-12-22T14:31:37.765Z,16.62
2017-12-22T14:34:04.006Z,16.30
2017-12-22T14:36:30.138Z,16.80
2017-12-22T14:38:56.272Z,18.50
2017-12-22T14:41:22.408Z,19.75
2017-12-22T14:43:49.268Z,18.50
2017-12-22T14:46:15.511Z,19.42
2017-12-22T14:48:41.821Z,18.42
2017-12-22T14:51:08.740Z,17.62
2017-12-22T14:53:34.976Z,18.33
2017-12-22T14:56:01.117Z,20.02
2017-12-22T14:58:27.285Z,20.25
2017-12-22T15:00:54.007Z,19.08
2017-12-22T15:03:20.197Z,20.00
2017-12-22T15:05:46.365Z,19.98
2017-12-22T15:08:13.251Z,19.48
2017-12-22T15:10:39.426Z,17.40
2017-12-22T15:13:05.568Z,18.92
2017-12-22T15:15:31.730Z,19.73
2017-12-22T15:18:05.698Z,20.02
2017-12-22T15:20:31.838Z,21.08
2017-12-22T15:22:58.087Z,20.17
2017-12-22T15:25:24.940Z,21.37
2017-12-22T15:27:59.160Z,20.60
2017-12-22T15:30:25.253Z,19.90
2017-12-22T15:33:05.752Z,18.25
2017-12-22T15:35:31.875Z,18.55
2017-12-22T15:38:05.845Z,22.55
2017-12-22T15:40:31.976Z,20.02
2017-12-22T15:42:58.836Z,20.50
2017-12-22T15:45:25.717Z,20.62
2017-12-22T15:47:52.601Z,21.27
2017-12-22T15:50:22.508Z,18.70
2017-12-22T15:52:56.764Z,20.73
2017-12-22T15:55:22.923Z,21.33
2017-12-22T15:57:49.046Z,21.40
2017-12-22T16:00:19.120Z,19.08
2017-12-22T16:02:45.262Z,18.60
2017-12-22T16:05:11.362Z,19.30
2017-12-22T16:07:37.943Z,18.98
2017-12-22T16:10:06.936Z,19.90
2017-12-22T16:12:33.092Z,20.10
2017-12-22T16:14:59.953Z,20.52
2017-12-22T16:17:26.194Z,19.08
2017-12-22T16:19:52.308Z,19.42
2017-12-22T16:22:18.537Z,18.60
2017-12-22T16:24:44.749Z,19.27
2017-12-22T16:27:11.645Z,19.20
2017-12-22T16:29:37.805Z,21.20
2017-12-22T16:32:03.949Z,20.17
2017-12-22T16:34:30.035Z,20.88
2017-12-22T16:36:56.185Z,20.92
2017-12-22T16:39:22.291Z,21.00
2017-12-22T16:41:48.864Z,21.42
2017-12-22T16:44:15.006Z,20.25
2017-12-22T16:46:41.116Z,21.23
2017-12-22T16:49:07.263Z,21.60
2017-12-22T16:51:33.380Z,21.60
2017-12-22T16:53:59.500Z,21.75
2017-12-22T16:56:25.788Z,22.55
2017-12-22T16:58:52.633Z,22.77
2017-12-22T17:01:22.027Z,22.52
2017-12-22T17:03:48.213Z,17.98
2017-12-22T17:06:14.329Z,19.60
2017-12-22T17:08:41.179Z,21.58
2017-12-22T17:11:07.358Z,21.87
2017-12-22T17:13:33.482Z,102.18
2017-12-22T17:15:59.599Z,59.25
2017-12-22T17:18:26.443Z,34.30
2017-12-22T17:20:55.996Z,29.20
2017-12-22T17:23:22.097Z,25.73
2017-12-22T17:25:48.212Z,22.90
2017-12-22T17:28:14.372Z,25.58
2017-12-22T17:30:40.483Z,24.75
2017-12-22T17:33:06.579Z,23.83
2017-12-22T17:35:32.695Z,23.35
2017-12-22T17:37:59.563Z,23.38
2017-12-22T17:40:27.370Z,24.40
2017-12-22T17:42:54.247Z,26.25
2017-12-22T17:45:21.168Z,25.20
2017-12-22T17:47:47.316Z,24.58
2017-12-22T17:50:13.439Z,24.25
2017-12-22T17:52:39.557Z,26.50
2017-12-22T17:55:05.674Z,27.05
2017-12-22T17:57:32.556Z,27.17
2017-12-22T18:00:03.212Z,27.33
2017-12-22T18:02:30.319Z,26.55
2017-12-22T18:04:56.456Z,26.40
2017-12-22T18:07:22.589Z,28.80
2017-12-22T18:09:48.712Z,27.83
2017-12-22T18:12:14.842Z,26.65
2017-12-22T18:14:40.953Z,30.80
2017-12-22T18:17:07.897Z,27.65
2017-12-22T18:19:34.042Z,29.12
2017-12-22T18:22:01.029Z,29.23
2017-12-22T18:24:27.148Z,29.48
2017-12-22T18:26:53.259Z,28.30
2017-12-22T18:29:19.964Z,30.27
2017-12-22T18:31:46.160Z,29.63
2017-12-22T18:34:12.346Z,29.17
2017-12-22T18:36:38.504Z,29.20
2017-12-22T18:39:04.648Z,31.50
2017-12-22T18:41:32.749Z,29.27
2017-12-22T18:43:58.924Z,29.55
2017-12-22T18:46:25.109Z,27.87
2017-12-22T18:48:51.993Z,31.27
2017-12-22T18:51:18.108Z,31.33
2017-12-22T18:53:44.981Z,29.63
2017-12-22T18:56:11.910Z,30.92
2017-12-22T18:58:38.048Z,28.10
2017-12-22T19:01:04.268Z,32.70
2017-12-22T19:03:30.482Z,32.08
2017-12-22T19:05:56.921Z,33.17
2017-12-22T19:08:27.918Z,32.53
2017-12-22T19:10:54.806Z,32.97
2017-12-22T19:13:28.116Z,32.28
2017-12-22T19:15:54.997Z,29.52
2017-12-22T19:18:24.064Z,29.60
2017-12-22T19:20:50.205Z,30.75
2017-12-22T19:23:16.416Z,29.05
2017-12-22T19:25:42.571Z,28.85
2017-12-22T19:28:08.759Z,32.15
2017-12-22T19:30:34.971Z,33.88
2017-12-22T19:33:01.089Z,32.30
2017-12-22T19:35:27.997Z,32.75
2017-12-22T19:37:55.060Z,32.55
2017-12-22T19:40:22.582Z,30.95
2017-12-22T19:42:48.698Z,32.40
2017-12-22T19:45:14.993Z,31.65
2017-12-22T19:47:41.116Z,30.35
2017-12-22T19:50:08.043Z,29.52
2017-12-22T19:52:34.155Z,29.70
2017-12-22T19:55:00.310Z,28.58
2017-12-22T19:57:26.503Z,31.30
2017-12-22T19:59:52.617Z,32.15
2017-12-22T20:02:18.757Z,31.80
2017-12-22T20:04:48.241Z,32.63
2017-12-22T20:07:14.501Z,29.20
2017-12-22T20:09:40.698Z,31.90
2017-12-22T20:12:09.271Z,30.75
2017-12-22T20:14:35.436Z,28.35
2017-12-22T20:17:02.349Z,29.42
2017-12-22T20:19:28.467Z,29.75
2017-12-22T20:21:54.581Z,31.45
2017-12-22T20:24:20.766Z,27.83
2017-12-22T20:26:47.009Z,29.87
2017-12-22T20:29:16.257Z,25.98
2017-12-22T20:31:42.393Z,25.23
2017-12-22T20:34:08.544Z,27.55
2017-12-22T20:36:35.494Z,25.42
2017-12-22T20:39:01.764Z,28.27
2017-12-22T20:41:27.938Z,27.25
2017-12-22T20:43:54.112Z,25.52
2017-12-22T20:46:24.705Z,26.08
2017-12-22T20:48:50.828Z,34.33
2017-12-22T20:51:17.681Z,30.05
2017-12-22T20:53:46.178Z,37.17
2017-12-22T20:56:12.296Z,35.60
2017-12-22T20:58:38.431Z,34.70
2017-12-22T21:01:04.541Z,36.15
2017-12-22T21:03:30.653Z,35.97
2017-12-22T21:05:57.506Z,35.40
2017-12-22T21:08:24.668Z,39.58
2017-12-22T21:10:51.507Z,49.35
2017-12-22T21:13:17.628Z,44.35
2017-12-22T21:15:43.749Z,41.20
2017-12-22T21:18:09.896Z,39.60
2017-12-22T21:20:36.033Z,48.35
2017-12-22T21:23:02.892Z,80.15
2017-12-22T21:25:29.002Z,112.88
2017-12-22T21:27:55.864Z,57.80
2017-12-22T21:30:25.072Z,83.97
2017-12-22T21:32:54.825Z,50.88
2017-12-22T21:35:21.002Z,44.90
2017-12-22T21:37:47.883Z,43.00
2017-12-22T21:40:14.004Z,36.03
2017-12-22T21:42:40.120Z,33.90
2017-12-22T21:45:06.342Z,29.02
2017-12-22T21:47:33.229Z,29.08
2017-12-22T21:50:00.114Z,30.83
2017-12-22T21:52:26.251Z,29.87
2017-12-22T21:54:52.391Z,31.15
2017-12-22T21:57:18.537Z,31.02
2017-12-22T21:59:44.694Z,30.58
2017-12-22T22:02:11.592Z,31.10
2017-12-22T22:04:37.700Z,29.95
2017-12-22T22:07:04.558Z,29.95
2017-12-22T22:09:31.416Z,30.12
2017-12-22T22:11:57.561Z,27.55
2017-12-22T22:14:24.440Z,30.08
2017-12-22T22:16:50.641Z,27.60
2017-12-22T22:19:16.754Z,33.45
2017-12-22T22:21:46.422Z,33.60
2017-12-22T22:24:13.353Z,29.30
2017-12-22T22:26:39.480Z,29.02
2017-12-22T22:29:05.608Z,28.83
2017-12-22T22:31:31.825Z,30.42
2017-12-22T22:33:57.951Z,30.80
2017-12-22T22:36:24.073Z,31.75
2017-12-22T22:38:50.384Z,30.42
2017-12-22T22:41:16.522Z,30.80
2017-12-22T22:43:42.716Z,33.25
2017-12-22T22:46:08.856Z,30.80
2017-12-22T22:48:35.027Z,37.28
2017-12-22T22:51:01.894Z,34.03
2017-12-22T22:53:29.371Z,35.80
2017-12-22T22:55:56.237Z,33.88
2017-12-22T22:58:23.132Z,35.60
2017-12-22T23:00:49.255Z,35.05
2017-12-22T23:03:16.138Z,40.25
2017-12-22T23:05:42.261Z,36.17
2017-12-22T23:08:08.484Z,39.08
2017-12-22T23:10:35.757Z,39.58
2017-12-22T23:13:09.770Z,38.90
2017-12-22T23:15:35.944Z,38.00
2017-12-22T23:18:02.812Z,37.50
2017-12-22T23:20:29.719Z,36.42
2017-12-22T23:22:55.845Z,36.25
2017-12-22T23:25:25.001Z,39.05
2017-12-22T23:27:51.245Z,35.88
2017-12-22T23:30:17.367Z,33.80
2017-12-22T23:32:43.545Z,34.00
2017-12-22T23:35:09.656Z,33.92
2017-12-22T23:37:35.760Z,35.70
2017-12-22T23:40:02.693Z,35.70
2017-12-22T23:42:28.805Z,33.55
2017-12-22T23:44:54.920Z,34.88
2017-12-22T23:47:21.039Z,32.10
2017-12-22T23:49:47.908Z,33.22
2017-12-22T23:52:14.754Z,32.35
2017-12-22T23:54:40.852Z,33.28
2017-12-22T23:57:06.977Z,31.70
2017-12-22T23:59:33.104Z,32.55
